Terminal Aerodrome Forecast
Issued by NWS

Home | Current Version | Previous Version | Text Only | Print | Product List | Glossary On
Versions: 1 2 3 4 5 6 7 8 9 10 11 12 13 14 15 16 17 18 19 20 21 22 23 24 25 26 27 28 29 30
000
FTUS45 KLKN 282300
TAFTPH
TAF
KTPH 282325Z 2900/2924 18009KT P6SM VCSH SCT060 OVC100
      TEMPO 2900/2904 -SHRA BKN080
     FM290400 34010KT P6SM VCSH BKN060 OVC080
     FM291200 32012KT P6SM -SHRA SCT040 OVC060
      TEMPO 2918/2922 VRB20G35KT TSRA BKN050CB
     FM292200 31015G25KT P6SM -TSRA SCT030CB OVC050=

USA.gov is the U.S. government's official web portal to all federal, state and local government web resources and services.